createdAt,value
2018-06-04T00:02:31.581Z,22.70
2018-06-04T00:04:59.749Z,22.80
2018-06-04T00:07:27.896Z,22.70
2018-06-04T00:09:56.076Z,22.70
2018-06-04T00:12:24.245Z,22.70
2018-06-04T00:14:52.472Z,22.70
2018-06-04T00:17:20.640Z,22.70
2018-06-04T00:19:48.791Z,22.70
2018-06-04T00:22:16.960Z,22.70
2018-06-04T00:24:45.168Z,22.70
2018-06-04T00:27:13.332Z,22.70
2018-06-04T00:29:41.602Z,22.60
2018-06-04T00:32:09.760Z,22.50
2018-06-04T00:34:37.936Z,22.50
2018-06-04T00:37:06.128Z,22.50
2018-06-04T00:39:34.282Z,22.50
2018-06-04T00:42:02.463Z,22.50
2018-06-04T00:44:30.620Z,22.50
2018-06-04T00:46:58.777Z,22.40
2018-06-04T00:49:26.940Z,22.40
2018-06-04T00:51:55.098Z,22.30
2018-06-04T00:54:23.231Z,22.30
2018-06-04T00:56:51.376Z,22.30
2018-06-04T00:59:19.530Z,22.20
2018-06-04T01:01:47.666Z,22.30
2018-06-04T01:04:16.064Z,22.30
2018-06-04T01:06:44.196Z,22.20
2018-06-04T01:09:12.764Z,22.20
2018-06-04T01:11:42.092Z,22.20
2018-06-04T01:14:10.241Z,22.10
2018-06-04T01:16:38.387Z,22.00
2018-06-04T01:19:06.535Z,22.10
2018-06-04T01:21:34.676Z,22.10
2018-06-04T01:24:02.861Z,22.00
2018-06-04T01:26:31.008Z,21.90
2018-06-04T01:28:59.140Z,21.90
2018-06-04T01:31:27.336Z,21.90
2018-06-04T01:33:55.482Z,21.80
2018-06-04T01:36:23.649Z,21.70
2018-06-04T01:38:51.859Z,21.70
2018-06-04T01:41:20.002Z,21.80
2018-06-04T01:43:48.176Z,21.80
2018-06-04T01:46:16.399Z,21.70
2018-06-04T01:48:44.537Z,21.60
2018-06-04T01:51:12.775Z,21.60
2018-06-04T01:53:40.973Z,21.60
2018-06-04T01:56:09.119Z,21.60
2018-06-04T01:58:37.976Z,21.60
2018-06-04T02:01:06.175Z,21.60
2018-06-04T02:03:34.344Z,21.60
2018-06-04T02:06:03.081Z,21.70
2018-06-04T02:10:59.222Z,21.60
2018-06-04T02:13:27.397Z,21.60
2018-06-04T02:15:55.556Z,21.60
2018-06-04T02:18:23.729Z,21.70
2018-06-04T02:20:51.900Z,21.60
2018-06-04T02:23:20.072Z,21.50
2018-06-04T02:25:48.220Z,21.50
2018-06-04T02:28:16.398Z,21.50
2018-06-04T02:30:44.609Z,21.40
2018-06-04T02:33:12.884Z,21.30
2018-06-04T02:35:41.059Z,21.20
2018-06-04T02:38:09.232Z,21.20
2018-06-04T02:40:37.372Z,21.30
2018-06-04T02:43:05.684Z,21.30
2018-06-04T02:45:33.859Z,21.30
2018-06-04T02:48:02.032Z,21.30
2018-06-04T02:50:30.191Z,21.10
2018-06-04T02:52:58.357Z,21.20
2018-06-04T02:55:26.513Z,21.30
2018-06-04T02:57:54.686Z,21.30
2018-06-04T03:00:22.869Z,21.30
2018-06-04T03:02:51.009Z,21.20
2018-06-04T03:05:19.165Z,21.10
2018-06-04T03:10:15.327Z,21.30
2018-06-04T03:15:11.481Z,21.40
2018-06-04T03:17:39.633Z,21.40
2018-06-04T03:20:07.818Z,21.30
2018-06-04T03:22:35.983Z,21.30
2018-06-04T03:25:04.183Z,21.30
2018-06-04T03:27:32.334Z,21.20
2018-06-04T03:30:00.512Z,21.20
2018-06-04T03:32:28.677Z,21.20
2018-06-04T03:37:24.756Z,21.10
2018-06-04T03:39:52.901Z,21.20
2018-06-04T03:42:21.075Z,21.20
2018-06-04T03:47:17.152Z,21.20
2018-06-04T03:49:45.344Z,21.00
2018-06-04T03:52:13.496Z,21.00
2018-06-04T03:54:41.651Z,21.10
2018-06-04T03:57:09.854Z,21.10
2018-06-04T03:59:38.020Z,21.10
2018-06-04T04:02:06.792Z,21.10
2018-06-04T04:04:34.975Z,21.10
2018-06-04T04:07:03.127Z,21.10
2018-06-04T04:09:31.319Z,21.10
2018-06-04T04:14:27.387Z,21.20
2018-06-04T04:16:55.525Z,21.30
2018-06-04T04:19:23.689Z,21.30
2018-06-04T04:21:51.816Z,21.40
2018-06-04T04:24:20.102Z,21.40
2018-06-04T04:26:48.251Z,21.40
2018-06-04T04:29:16.373Z,21.40
2018-06-04T04:31:44.561Z,21.50
2018-06-04T04:34:13.122Z,21.60
2018-06-04T04:36:41.262Z,21.60
2018-06-04T04:39:09.545Z,21.70
2018-06-04T04:41:37.684Z,21.70
2018-06-04T04:44:05.845Z,21.70
2018-06-04T04:46:33.992Z,21.90
2018-06-04T04:49:02.151Z,22.00
2018-06-04T04:51:30.303Z,22.00
2018-06-04T04:53:58.443Z,22.10
2018-06-04T04:56:26.609Z,22.20
2018-06-04T04:58:54.805Z,22.20
2018-06-04T05:01:23.009Z,22.30
2018-06-04T05:03:51.160Z,22.40
2018-06-04T05:06:19.312Z,22.40
2018-06-04T05:11:16.543Z,22.50
2018-06-04T05:13:44.757Z,22.60
2018-06-04T05:16:13.208Z,22.70
2018-06-04T05:18:41.347Z,22.70
2018-06-04T05:21:09.508Z,22.80
2018-06-04T05:23:37.636Z,22.90
2018-06-04T05:26:05.888Z,23.00
2018-06-04T05:28:34.032Z,23.00
2018-06-04T05:31:02.166Z,23.10
2018-06-04T05:33:30.310Z,23.10
2018-06-04T05:35:58.471Z,23.10
2018-06-04T05:38:26.669Z,23.10
2018-06-04T05:40:55.044Z,23.20
2018-06-04T05:43:23.276Z,23.30
2018-06-04T05:48:19.369Z,23.40
2018-06-04T05:50:47.531Z,23.50
2018-06-04T05:53:15.716Z,23.60
2018-06-04T05:55:43.888Z,23.70
2018-06-04T05:58:12.046Z,23.90
2018-06-04T06:00:40.280Z,24.00
2018-06-04T06:03:08.403Z,24.20
2018-06-04T06:05:36.640Z,24.30
2018-06-04T06:08:04.954Z,24.40
2018-06-04T06:10:33.096Z,24.40
2018-06-04T06:13:01.279Z,24.40
2018-06-04T06:15:29.424Z,24.40
2018-06-04T06:17:59.813Z,24.50
2018-06-04T06:20:28.901Z,24.50
2018-06-04T06:22:57.503Z,24.60
2018-06-04T06:25:25.730Z,24.80
2018-06-04T06:27:54.644Z,25.00
2018-06-04T06:30:22.855Z,25.20
2018-06-04T06:32:51.020Z,25.40
2018-06-04T06:35:19.338Z,25.60
2018-06-04T06:37:48.376Z,25.80
2018-06-04T06:40:16.511Z,25.90
2018-06-04T06:42:44.680Z,27.00
2018-06-04T06:45:13.464Z,28.80
2018-06-04T06:47:41.622Z,30.80
2018-06-04T06:50:09.779Z,32.60
2018-06-04T06:52:37.931Z,33.80
2018-06-04T06:55:06.095Z,34.70
2018-06-04T06:57:34.239Z,36.00
2018-06-04T07:00:02.653Z,36.90
2018-06-04T07:04:59.656Z,38.50
2018-06-04T07:07:27.980Z,38.30
2018-06-04T07:09:56.216Z,38.40
2018-06-04T07:12:24.412Z,38.70
2018-06-04T07:14:52.555Z,39.10
2018-06-04T07:17:20.705Z,39.50
2018-06-04T07:19:48.883Z,39.70
2018-06-04T07:22:17.052Z,40.00
2018-06-04T07:24:45.193Z,40.30
2018-06-04T07:27:13.432Z,40.50
2018-06-04T07:29:41.568Z,40.90
2018-06-04T07:32:09.732Z,41.20
2018-06-04T07:34:37.893Z,41.60
2018-06-04T07:37:06.068Z,41.60
2018-06-04T07:39:34.228Z,41.30
2018-06-04T07:42:02.394Z,41.20
2018-06-04T07:44:30.736Z,41.40
2018-06-04T07:46:58.838Z,41.20
2018-06-04T07:49:27.074Z,41.00
2018-06-04T07:51:55.238Z,41.40
2018-06-04T07:54:23.400Z,41.10
2018-06-04T07:56:51.568Z,41.00
2018-06-04T07:59:19.725Z,41.20
2018-06-04T08:01:47.938Z,40.70
2018-06-04T08:04:16.130Z,41.10
2018-06-04T08:09:12.365Z,41.20
2018-06-04T08:11:40.601Z,41.00
2018-06-04T08:14:08.768Z,41.80
2018-06-04T08:16:36.936Z,41.80
2018-06-04T08:19:11.898Z,41.70
2018-06-04T08:24:40.341Z,42.20
2018-06-04T08:27:23.313Z,42.70
2018-06-04T08:29:51.504Z,42.00
2018-06-04T08:32:19.660Z,41.70
2018-06-04T08:34:47.823Z,41.70
2018-06-04T08:37:15.997Z,41.60
2018-06-04T08:39:44.222Z,41.90
2018-06-04T08:42:12.912Z,42.00
2018-06-04T08:44:41.036Z,42.20
2018-06-04T08:47:09.192Z,42.20
2018-06-04T08:49:37.354Z,42.20
2018-06-04T08:52:05.492Z,42.40
2018-06-04T08:54:33.785Z,42.40
2018-06-04T08:57:01.945Z,42.40
2018-06-04T08:59:30.105Z,42.80
2018-06-04T09:04:26.299Z,42.40
2018-06-04T09:06:54.440Z,41.10
2018-06-04T09:09:22.600Z,40.80
2018-06-04T09:11:50.799Z,41.00
2018-06-04T09:14:18.952Z,40.80
2018-06-04T09:16:47.116Z,39.80
2018-06-04T09:19:15.286Z,39.60
2018-06-04T09:21:43.499Z,39.40
2018-06-04T09:24:11.661Z,39.20
2018-06-04T09:26:40.021Z,38.60
2018-06-04T09:29:08.282Z,38.60
2018-06-04T09:31:36.379Z,38.70
2018-06-04T09:36:32.477Z,38.90
2018-06-04T09:39:00.648Z,39.90
2018-06-04T09:41:28.941Z,40.90
2018-06-04T09:43:57.144Z,41.40
2018-06-04T09:48:53.242Z,42.30
2018-06-04T09:51:21.408Z,42.70
2018-06-04T09:53:49.622Z,42.90
2018-06-04T09:56:17.756Z,43.30
2018-06-04T09:58:45.929Z,43.50
2018-06-04T10:01:14.205Z,44.40
2018-06-04T10:03:42.357Z,44.90
2018-06-04T10:06:10.564Z,42.20
2018-06-04T10:08:38.741Z,42.00
2018-06-04T10:11:06.911Z,41.90
2018-06-04T10:13:35.172Z,42.50
2018-06-04T10:16:03.325Z,43.00
2018-06-04T10:18:31.480Z,43.30
2018-06-04T10:23:41.782Z,44.10
2018-06-04T10:26:15.414Z,43.20
2018-06-04T10:28:45.126Z,42.30
2018-06-04T10:31:13.829Z,41.30
2018-06-04T10:33:42.060Z,40.10
2018-06-04T10:36:10.136Z,40.40
2018-06-04T10:38:39.202Z,41.10
2018-06-04T10:41:07.365Z,42.20
2018-06-04T10:43:36.155Z,43.80
2018-06-04T10:46:04.325Z,43.90
2018-06-04T10:48:33.216Z,43.30
2018-06-04T10:51:01.354Z,43.50
2018-06-04T10:53:29.523Z,43.60
2018-06-04T10:58:25.628Z,44.30
2018-06-04T11:03:21.729Z,44.30
2018-06-04T11:05:49.889Z,44.00
2018-06-04T11:08:18.073Z,44.40
2018-06-04T11:10:46.248Z,43.60
2018-06-04T11:13:14.467Z,43.20
2018-06-04T11:15:42.651Z,43.10
2018-06-04T11:18:10.801Z,43.30
2018-06-04T11:20:38.977Z,42.50
2018-06-04T11:23:07.150Z,41.50
2018-06-04T11:25:35.342Z,40.70
2018-06-04T11:28:03.553Z,39.40
2018-06-04T11:30:31.774Z,38.60
2018-06-04T11:32:59.852Z,37.80
2018-06-04T11:35:28.026Z,37.40
2018-06-04T11:37:56.167Z,37.30
2018-06-04T11:40:24.333Z,37.30
2018-06-04T11:42:52.460Z,37.50
2018-06-04T11:45:20.610Z,37.70
2018-06-04T11:47:48.785Z,37.60
2018-06-04T11:50:16.916Z,37.70
2018-06-04T11:52:45.050Z,37.80
2018-06-04T11:55:13.977Z,37.80
2018-06-04T11:57:42.691Z,37.80
2018-06-04T12:00:10.864Z,37.80
2018-06-04T12:02:38.998Z,37.70
2018-06-04T12:05:07.321Z,37.90
2018-06-04T12:07:42.108Z,37.90
2018-06-04T12:10:11.931Z,38.00
2018-06-04T12:12:40.137Z,38.40
2018-06-04T12:15:08.307Z,38.40
2018-06-04T12:17:36.668Z,38.50
2018-06-04T12:20:04.811Z,38.50
2018-06-04T12:22:32.947Z,38.40
2018-06-04T12:25:01.084Z,38.00
2018-06-04T12:27:29.311Z,37.90
2018-06-04T12:29:57.455Z,37.90
2018-06-04T12:32:25.600Z,37.90
2018-06-04T12:34:53.723Z,37.70
2018-06-04T12:37:21.858Z,37.40
2018-06-04T12:39:50.086Z,37.20
2018-06-04T12:42:18.216Z,36.80
2018-06-04T12:44:47.376Z,36.30
2018-06-04T12:47:15.564Z,36.20
2018-06-04T12:52:11.603Z,36.10
2018-06-04T12:54:39.750Z,36.30
2018-06-04T12:57:07.893Z,36.50
2018-06-04T12:59:36.031Z,36.60
2018-06-04T13:02:04.184Z,36.70
2018-06-04T13:04:32.399Z,36.80
2018-06-04T13:07:00.540Z,36.80
2018-06-04T13:09:29.588Z,36.40
2018-06-04T13:11:57.739Z,36.20
2018-06-04T13:14:26.021Z,35.80
2018-06-04T13:16:54.152Z,35.50
2018-06-04T13:19:22.334Z,35.40
2018-06-04T13:21:50.572Z,34.90
2018-06-04T13:24:18.704Z,34.50
2018-06-04T13:26:46.921Z,34.50
2018-06-04T13:29:15.283Z,34.70
2018-06-04T13:31:43.422Z,34.80
2018-06-04T13:34:11.576Z,35.00
2018-06-04T13:36:39.731Z,34.80
2018-06-04T13:39:09.327Z,34.70
2018-06-04T13:41:37.555Z,34.60
2018-06-04T13:44:05.741Z,34.50
2018-06-04T13:46:33.950Z,34.60
2018-06-04T13:49:02.131Z,34.50
2018-06-04T13:51:30.309Z,34.30
2018-06-04T13:53:58.462Z,34.00
2018-06-04T13:56:26.744Z,34.10
2018-06-04T13:58:54.898Z,34.00
2018-06-04T14:01:23.425Z,33.90
2018-06-04T14:03:51.939Z,33.70
2018-06-04T14:06:20.130Z,33.80
2018-06-04T14:08:48.316Z,33.80
2018-06-04T14:11:16.656Z,34.20
2018-06-04T14:13:44.807Z,34.50
2018-06-04T14:16:12.978Z,34.70
2018-06-04T14:18:41.116Z,34.90
2018-06-04T14:21:09.292Z,35.00
2018-06-04T14:23:37.472Z,35.00
2018-06-04T14:26:05.619Z,34.80
2018-06-04T14:28:33.772Z,34.50
2018-06-04T14:33:29.952Z,34.30
2018-06-04T14:35:58.083Z,34.30
2018-06-04T14:38:26.266Z,34.40
2018-06-04T14:40:54.452Z,34.50
2018-06-04T14:43:22.607Z,34.70
2018-06-04T14:45:50.758Z,34.70
2018-06-04T14:48:18.999Z,34.80
2018-06-04T14:50:47.142Z,34.90
2018-06-04T14:53:15.516Z,34.90
2018-06-04T14:55:43.667Z,34.80
2018-06-04T14:58:11.892Z,34.60
2018-06-04T15:00:40.076Z,34.60
2018-06-04T15:03:08.212Z,34.80
2018-06-04T15:05:36.488Z,34.60
2018-06-04T15:08:04.623Z,34.50
2018-06-04T15:10:32.862Z,34.40
2018-06-04T15:13:01.043Z,34.20
2018-06-04T15:15:29.192Z,34.20
2018-06-04T15:17:57.380Z,34.20
2018-06-04T15:20:25.532Z,34.10
2018-06-04T15:22:53.704Z,34.00
2018-06-04T15:25:21.844Z,34.10
2018-06-04T15:27:50.031Z,33.80
2018-06-04T15:30:18.167Z,33.70
2018-06-04T15:32:46.324Z,33.20
2018-06-04T15:37:43.369Z,32.80
2018-06-04T15:40:11.465Z,32.90
2018-06-04T15:42:39.600Z,32.60
2018-06-04T15:45:07.836Z,32.70
2018-06-04T15:47:35.958Z,32.70
2018-06-04T15:50:04.095Z,32.60
2018-06-04T15:52:32.229Z,32.50
2018-06-04T15:55:00.355Z,32.50
2018-06-04T15:57:28.575Z,32.40
2018-06-04T15:59:56.710Z,32.40
2018-06-04T16:02:24.859Z,32.70
2018-06-04T16:04:53.092Z,32.70
2018-06-04T16:07:21.263Z,32.80
2018-06-04T16:09:49.408Z,32.70
2018-06-04T16:12:17.551Z,32.80
2018-06-04T16:14:45.695Z,32.90
2018-06-04T16:17:14.627Z,33.00
2018-06-04T16:19:42.760Z,33.00
2018-06-04T16:22:10.980Z,33.00
2018-06-04T16:24:39.096Z,32.90
2018-06-04T16:27:07.271Z,33.00
2018-06-04T16:29:35.404Z,32.90
2018-06-04T16:32:03.561Z,33.00
2018-06-04T16:34:31.727Z,32.90
2018-06-04T16:36:59.930Z,32.90
2018-06-04T16:39:28.022Z,32.70
2018-06-04T16:41:56.213Z,32.70
2018-06-04T16:44:24.447Z,32.50
2018-06-04T16:46:52.592Z,32.40
2018-06-04T16:49:20.748Z,32.30
2018-06-04T16:51:48.880Z,32.40
2018-06-04T16:54:17.003Z,32.40
2018-06-04T16:56:45.169Z,32.20
2018-06-04T16:59:13.304Z,32.10
2018-06-04T17:01:41.472Z,32.10
2018-06-04T17:04:09.643Z,32.10
2018-06-04T17:06:37.787Z,32.00
2018-06-04T17:09:07.240Z,31.90
2018-06-04T17:11:35.385Z,32.00
2018-06-04T17:14:03.598Z,31.90
2018-06-04T17:16:32.387Z,31.90
2018-06-04T17:19:00.536Z,31.90
2018-06-04T17:21:28.659Z,32.00
2018-06-04T17:23:56.816Z,31.90
2018-06-04T17:26:25.015Z,31.80
2018-06-04T17:29:00.012Z,31.70
2018-06-04T17:33:57.001Z,30.90
2018-06-04T17:36:25.153Z,30.80
2018-06-04T17:38:53.739Z,30.90
2018-06-04T17:41:21.859Z,31.10
2018-06-04T17:43:50.020Z,31.00
2018-06-04T17:46:18.150Z,31.00
2018-06-04T17:48:46.749Z,30.90
2018-06-04T17:51:15.779Z,30.90
2018-06-04T17:53:43.918Z,30.80
2018-06-04T17:56:12.060Z,30.90
2018-06-04T17:58:40.209Z,30.70
2018-06-04T18:01:08.375Z,30.50
2018-06-04T18:03:36.500Z,30.50
2018-06-04T18:06:04.671Z,30.40
2018-06-04T18:08:32.827Z,30.40
2018-06-04T18:11:01.037Z,30.50
2018-06-04T18:13:29.184Z,30.50
2018-06-04T18:15:57.338Z,30.40
2018-06-04T18:18:25.467Z,30.50
2018-06-04T18:20:53.647Z,30.40
2018-06-04T18:23:21.783Z,30.20
2018-06-04T18:25:49.925Z,30.20
2018-06-04T18:28:18.076Z,30.30
2018-06-04T18:33:14.127Z,30.10
2018-06-04T18:38:10.167Z,30.10
2018-06-04T18:40:38.561Z,30.00
2018-06-04T18:43:06.971Z,30.00
2018-06-04T18:45:35.111Z,29.80
2018-06-04T18:48:03.246Z,29.80
2018-06-04T18:50:31.399Z,29.80
2018-06-04T18:52:59.531Z,29.70
2018-06-04T18:55:27.687Z,29.70
2018-06-04T18:57:55.859Z,29.40
2018-06-04T19:00:24.040Z,29.40
2018-06-04T19:02:52.300Z,29.40
2018-06-04T19:05:20.428Z,29.40
2018-06-04T19:07:48.560Z,29.40
2018-06-04T19:10:16.715Z,29.40
2018-06-04T19:12:44.841Z,29.30
2018-06-04T19:15:13.008Z,26.80
2018-06-04T19:17:41.141Z,29.20
2018-06-04T19:20:09.295Z,29.20
2018-06-04T19:22:38.405Z,29.00
2018-06-04T19:25:06.547Z,29.00
2018-06-04T19:27:34.708Z,28.90
2018-06-04T19:30:03.125Z,28.80
2018-06-04T19:32:31.262Z,28.80
2018-06-04T19:34:59.403Z,28.70
2018-06-04T19:37:27.544Z,28.60
2018-06-04T19:39:55.739Z,28.60
2018-06-04T19:42:23.890Z,28.50
2018-06-04T19:44:52.063Z,28.40
2018-06-04T19:47:20.227Z,28.20
2018-06-04T19:49:48.384Z,28.10
2018-06-04T19:52:16.522Z,28.00
2018-06-04T19:54:44.685Z,28.00
2018-06-04T19:57:12.851Z,27.90
2018-06-04T19:59:41.056Z,27.60
2018-06-04T20:02:15.087Z,27.40
2018-06-04T20:04:43.218Z,27.10
2018-06-04T20:07:11.411Z,27.00
2018-06-04T20:12:07.527Z,26.70
2018-06-04T20:14:35.722Z,26.70
2018-06-04T20:17:03.884Z,26.60
2018-06-04T20:19:32.042Z,26.50
2018-06-04T20:22:00.235Z,26.50
2018-06-04T20:24:28.493Z,26.40
2018-06-04T20:26:56.676Z,26.30
2018-06-04T20:29:24.853Z,26.10
2018-06-04T20:31:53.090Z,26.10
2018-06-04T20:34:21.256Z,26.10
2018-06-04T20:36:49.423Z,25.90
2018-06-04T20:39:17.584Z,25.80
2018-06-04T20:41:45.724Z,25.70
2018-06-04T20:44:13.917Z,25.70
2018-06-04T20:46:42.061Z,25.60
2018-06-04T20:49:10.192Z,25.50
2018-06-04T20:51:38.346Z,25.30
2018-06-04T20:54:06.507Z,25.30
2018-06-04T20:56:34.666Z,25.40
2018-06-04T20:59:02.816Z,25.20
2018-06-04T21:01:30.968Z,25.10
2018-06-04T21:03:59.121Z,25.10
2018-06-04T21:06:27.331Z,24.90
2018-06-04T21:08:55.530Z,24.80
2018-06-04T21:11:23.674Z,24.80
2018-06-04T21:13:51.853Z,24.80
2018-06-04T21:16:19.944Z,24.80
2018-06-04T21:18:48.072Z,24.70
2018-06-04T21:21:16.293Z,24.80
2018-06-04T21:23:44.431Z,24.70
2018-06-04T21:26:12.603Z,24.50
2018-06-04T21:28:40.731Z,24.30
2018-06-04T21:31:09.379Z,24.30
2018-06-04T21:33:37.545Z,24.30
2018-06-04T21:36:05.667Z,24.40
2018-06-04T21:38:33.823Z,24.30
2018-06-04T21:41:01.961Z,24.40
2018-06-04T21:43:30.170Z,24.30
2018-06-04T21:45:58.306Z,24.10
2018-06-04T21:48:26.435Z,24.10
2018-06-04T21:50:54.593Z,24.00
2018-06-04T21:53:22.712Z,24.00
2018-06-04T21:55:51.146Z,23.90
2018-06-04T21:58:19.276Z,24.10
2018-06-04T22:00:47.428Z,23.90
2018-06-04T22:03:16.355Z,23.80
2018-06-04T22:05:44.500Z,23.80
2018-06-04T22:08:12.627Z,23.90
2018-06-04T22:10:40.803Z,23.80
2018-06-04T22:13:09.840Z,23.60
2018-06-04T22:15:37.977Z,23.50
2018-06-04T22:18:06.125Z,23.60
2018-06-04T22:20:34.271Z,23.50
2018-06-04T22:23:03.110Z,23.40
2018-06-04T22:25:31.244Z,23.40
2018-06-04T22:27:59.377Z,23.40
2018-06-04T22:30:27.508Z,23.40
2018-06-04T22:32:55.911Z,23.40
2018-06-04T22:35:24.052Z,23.40
2018-06-04T22:37:52.187Z,23.30
2018-06-04T22:40:20.358Z,23.20
2018-06-04T22:42:48.533Z,23.20
2018-06-04T22:45:16.668Z,23.10
2018-06-04T22:47:44.823Z,23.10
2018-06-04T22:50:12.978Z,23.00
2018-06-04T22:52:41.119Z,23.10
2018-06-04T22:55:09.277Z,23.00
2018-06-04T22:57:37.426Z,23.00
2018-06-04T23:00:05.583Z,22.60
2018-06-04T23:05:01.689Z,22.70
2018-06-04T23:07:29.850Z,22.50
2018-06-04T23:09:58.025Z,22.50
2018-06-04T23:12:26.184Z,22.60
2018-06-04T23:14:54.354Z,22.50
2018-06-04T23:17:22.529Z,22.60
2018-06-04T23:19:50.684Z,22.50
2018-06-04T23:22:18.846Z,22.50
2018-06-04T23:24:46.982Z,22.50
2018-06-04T23:27:15.127Z,22.40
2018-06-04T23:29:43.386Z,22.50
2018-06-04T23:32:11.540Z,22.30
2018-06-04T23:34:39.692Z,22.20
2018-06-04T23:37:07.843Z,22.20
2018-06-04T23:39:36.053Z,22.00
2018-06-04T23:44:32.191Z,22.10
2018-06-04T23:47:00.349Z,22.30
2018-06-04T23:49:28.512Z,22.40
2018-06-04T23:51:56.687Z,22.40
2018-06-04T23:54:24.959Z,22.20
2018-06-04T23:56:53.112Z,22.20
2018-06-04T23:59:21.260Z,22.40
